Time;durP1;ratioP1;P1;durP2;ratioP2;P2;SDS_P1;SDS_P2;PMS_P1;PMS_P2;Temp;Humidity;BMP_temperature;BMP_pressure;BME280_temperature;BME280_humidity;BME280_pressure;Samples;Min_cycle;Max_cycle;Signal;HPM_P1;HPM_P2
2022/12/02 00:02:33;;;;;;;80.50;46.67;;;;;;;4.72;100.00;102427.56;5267978;28;20094;-75
2022/12/02 00:05:24;;;;;;;87.22;48.53;;;;;;;4.74;100.00;102419.03;5285304;28;20103;-76
2022/12/02 00:08:14;;;;;;;85.60;50.42;;;;;;;4.71;100.00;102426.69;5284981;28;20387;-75
2022/12/02 00:10:46;;;;;;;90.03;51.47;;;;;;;4.68;100.00;102421.38;5284866;28;20151;-75
2022/12/02 00:13:28;;;;;;;88.50;53.30;;;;;;;4.70;100.00;102418.88;5266573;28;20115;-75
2022/12/02 00:16:03;;;;;;;86.30;50.50;;;;;;;4.62;100.00;102415.13;5285411;28;20310;-74
2022/12/02 00:18:34;;;;;;;87.68;51.38;;;;;;;4.54;100.00;102418.31;5284591;28;20414;-75
2022/12/02 00:21:05;;;;;;;91.43;53.67;;;;;;;4.57;100.00;102409.78;5285074;28;20028;-76
2022/12/02 00:23:37;;;;;;;92.53;53.47;;;;;;;4.52;100.00;102407.03;5284569;28;20055;-76
2022/12/02 00:26:08;;;;;;;81.17;49.27;;;;;;;4.53;100.00;102413.06;5285392;28;20452;-75
2022/12/02 00:28:40;;;;;;;86.03;50.87;;;;;;;4.41;100.00;102408.31;5284750;28;20471;-75
2022/12/02 00:31:11;;;;;;;77.37;46.00;;;;;;;4.33;98.71;102413.19;5284758;28;20075;-76
2022/12/02 00:33:42;;;;;;;71.00;45.17;;;;;;;4.34;98.40;102409.78;5285255;28;20082;-75
2022/12/02 00:36:14;;;;;;;73.17;46.07;;;;;;;4.30;98.52;102397.59;5285168;28;20033;-74
2022/12/02 00:38:45;;;;;;;74.43;46.73;;;;;;;4.28;98.19;102404.41;5284466;28;20138;-75
2022/12/02 00:41:16;;;;;;;75.43;46.97;;;;;;;4.25;98.29;102393.94;5284557;28;20368;-75
2022/12/02 00:46:38;;;;;;;71.78;45.38;;;;;;;4.19;97.90;102389.41;5284449;28;20041;-75
2022/12/02 00:49:13;;;;;;;70.37;43.53;;;;;;;4.22;98.01;102388.66;5284113;28;20475;-74
2022/12/02 00:51:44;;;;;;;73.22;45.88;;;;;;;4.16;97.90;102398.75;5284510;28;20028;-74
2022/12/02 00:54:16;;;;;;;70.33;45.83;;;;;;;4.16;98.06;102384.13;5284649;28;20047;-75
2022/12/02 00:56:47;;;;;;;73.03;46.00;;;;;;;4.06;97.91;102386.28;5284180;28;20028;-75
2022/12/02 00:59:18;;;;;;;73.37;43.13;;;;;;;4.10;97.92;102381.28;5284074;28;20028;-74
2022/12/02 01:01:50;;;;;;;76.73;44.77;;;;;;;4.07;97.99;102383.75;5284161;28;20036;-75
2022/12/02 01:04:21;;;;;;;71.60;46.20;;;;;;;4.15;98.27;102387.53;5266099;28;20055;-74
2022/12/02 01:06:53;;;;;;;72.83;43.63;;;;;;;4.08;98.46;102384.66;5283760;28;20039;-75
2022/12/02 01:09:24;;;;;;;76.83;46.63;;;;;;;4.10;98.58;102381.28;5284023;28;20036;-75
2022/12/02 01:11:55;;;;;;;73.40;46.43;;;;;;;4.10;98.61;102380.44;5284060;28;20050;-75
2022/12/02 01:14:27;;;;;;;74.00;45.30;;;;;;;4.06;98.70;102379.44;5284048;28;20090;-75
2022/12/02 01:16:58;;;;;;;69.33;43.73;;;;;;;4.06;98.61;102383.69;5284141;28;20033;-75
2022/12/02 01:19:30;;;;;;;70.07;44.43;;;;;;;4.09;98.33;102386.41;5265867;28;20032;-74
2022/12/02 01:22:01;;;;;;;67.83;42.17;;;;;;;4.10;98.43;102372.69;5283952;28;20047;-75
2022/12/02 01:24:32;;;;;;;76.63;47.33;;;;;;;4.00;98.16;102377.47;5265431;28;20033;-74
2022/12/02 01:27:04;;;;;;;72.80;42.50;;;;;;;3.96;98.17;102382.44;5283336;28;20111;-76
2022/12/02 01:29:35;;;;;;;75.23;44.27;;;;;;;4.04;98.40;102380.19;5284453;28;20032;-75
2022/12/02 01:32:06;;;;;;;70.17;43.63;;;;;;;3.98;98.25;102380.84;5284709;28;20072;-76
2022/12/02 01:34:38;;;;;;;69.90;45.80;;;;;;;4.03;98.54;102376.72;5284750;28;20111;-74
2022/12/02 01:37:09;;;;;;;71.73;45.93;;;;;;;3.98;98.27;102376.53;5283968;28;20036;-74
2022/12/02 01:39:41;;;;;;;72.87;45.40;;;;;;;4.01;98.61;102371.50;5283271;28;20033;-75
2022/12/02 01:42:13;;;;;;;73.63;46.00;;;;;;;4.06;98.60;102378.53;5283600;28;20053;-75
2022/12/02 01:44:44;;;;;;;71.97;46.70;;;;;;;4.02;98.63;102382.69;5265713;28;20127;-74
2022/12/02 01:47:15;;;;;;;73.03;44.43;;;;;;;4.04;98.50;102385.34;5283713;28;20031;-75
2022/12/02 01:49:47;;;;;;;76.70;47.80;;;;;;;4.01;98.09;102378.38;5283554;28;20032;-75
2022/12/02 01:52:18;;;;;;;70.87;43.97;;;;;;;3.97;98.40;102379.06;5267811;28;20559;-73
2022/12/02 01:54:50;;;;;;;67.93;44.20;;;;;;;3.97;98.61;102384.22;5286508;28;20054;-74
2022/12/02 01:57:27;;;;;;;70.82;42.30;;;;;;;3.96;98.52;102378.19;5284291;28;20071;-72
2022/12/02 01:59:58;;;;;;;70.25;44.50;;;;;;;3.91;98.42;102371.97;5284405;28;20040;-74
2022/12/02 02:02:34;;;;;;;73.43;45.27;;;;;;;3.95;98.73;102379.00;5283056;28;20098;-75
2022/12/02 02:05:17;;;;;;;71.38;44.38;;;;;;;3.97;99.44;102374.75;5283468;28;20066;-75
2022/12/02 02:07:50;;;;;;;;;;;;;;;4.07;99.22;102377.72;5284089;28;20452;-76
2022/12/02 02:10:23;;;;;;;;;;;;;;;4.08;99.26;102374.34;5283708;28;19969;-75
2022/12/02 02:12:55;;;;;;;67.50;42.45;;;;;;;3.86;99.21;102370.00;5283636;28;19935;-75
2022/12/02 02:15:26;;;;;;;63.40;40.25;;;;;;;3.86;99.35;102365.72;5283119;28;20025;-76
2022/12/02 02:17:58;;;;;;;62.50;40.50;;;;;;;3.82;99.50;102366.44;5264966;28;20028;-75
2022/12/02 02:20:30;;;;;;;69.27;40.53;;;;;;;3.86;99.80;102373.47;5284252;28;20057;-75
2022/12/02 02:23:04;;;;;;;71.00;41.57;;;;;;;3.77;99.73;102370.53;5283158;28;20115;-75
2022/12/02 02:25:46;;;;;;;67.65;40.88;;;;;;;3.74;100.00;102371.28;5283208;28;20056;-75
2022/12/02 02:28:18;;;;;;;72.93;44.75;;;;;;;3.75;100.00;102370.47;5265252;28;20135;-75
2022/12/02 02:30:54;;;;;;;67.25;42.58;;;;;;;3.75;100.00;102362.72;5283806;28;20417;-75
2022/12/02 02:33:30;;;;;;;71.57;43.72;;;;;;;3.70;99.88;102360.75;5284481;28;20028;-75
2022/12/02 02:36:03;;;;;;;67.03;42.63;;;;;;;3.65;99.62;102364.06;5283310;28;20029;-75
2022/12/02 02:38:35;;;;;;;70.68;43.53;;;;;;;3.70;99.47;102366.78;5286359;28;20040;-76
2022/12/02 02:41:07;;;;;;;73.22;44.40;;;;;;;3.70;99.59;102363.34;5286438;28;20476;-75
2022/12/02 02:43:39;;;;;;;70.85;45.30;;;;;;;3.66;99.01;102359.75;5268229;28;20066;-76
2022/12/02 02:46:10;;;;;;;77.10;47.97;;;;;;;3.60;98.30;102354.34;5286296;28;20040;-76
2022/12/02 02:48:43;;;;;;;79.90;47.87;;;;;;;3.56;98.26;102355.94;5286893;28;20029;-75
2022/12/02 02:51:15;;;;;;;73.70;45.85;;;;;;;3.52;97.83;102350.59;5252642;28;20094;-76
2022/12/02 02:53:46;;;;;;;73.88;45.63;;;;;;;3.53;97.49;102352.34;5286925;28;20040;-75
2022/12/02 02:56:18;;;;;;;69.77;43.77;;;;;;;3.51;96.95;102344.56;5286060;28;20448;-75
2022/12/02 02:58:49;;;;;;;67.13;43.03;;;;;;;3.49;97.35;102351.31;5285933;28;20541;-75
2022/12/02 03:01:28;;;;;;;72.40;43.63;;;;;;;3.38;97.12;102350.00;5286533;28;20387;-75
2022/12/02 03:04:03;;;;;;;65.68;41.75;;;;;;;3.43;97.22;102345.91;5286108;28;20103;-76
2022/12/02 03:06:37;;;;;;;63.58;40.75;;;;;;;3.45;97.40;102339.13;5285889;28;20107;-75
2022/12/02 03:09:12;;;;;;;65.45;41.45;;;;;;;3.34;97.27;102336.09;5285613;28;20024;-76
2022/12/02 03:11:46;;;;;;;64.97;39.92;;;;;;;3.33;97.46;102325.72;5285913;28;20025;-75
2022/12/02 03:14:20;;;;;;;63.55;40.40;;;;;;;3.29;97.26;102333.34;5286360;28;20363;-75
2022/12/02 03:16:52;;;;;;;63.65;39.35;;;;;;;3.27;97.12;102323.78;5286262;28;20483;-75
2022/12/02 03:19:25;;;;;;;60.83;38.97;;;;;;;3.30;97.15;102321.34;5285833;28;20037;-75
2022/12/02 03:21:58;;;;;;;59.13;38.08;;;;;;;3.35;96.63;102329.25;5286401;28;20426;-75
2022/12/02 03:24:31;;;;;;;62.40;40.15;;;;;;;3.34;96.92;102322.34;5285941;28;20060;-76
2022/12/02 03:27:04;;;;;;;63.25;39.92;;;;;;;3.20;96.58;102322.63;5285415;28;20451;-75
2022/12/02 03:29:36;;;;;;;;;;;;;;;3.36;96.96;102328.44;5286099;28;20447;-75
2022/12/02 03:32:09;;;;;;;57.70;37.70;;;;;;;3.24;96.40;102331.41;5285478;28;19947;-76
2022/12/02 03:34:41;;;;;;;61.33;38.33;;;;;;;3.18;95.49;102338.84;5286285;28;20037;-75
2022/12/02 03:37:12;;;;;;;57.20;37.33;;;;;;;3.16;95.29;102337.91;5285809;28;20398;-75
2022/12/02 03:39:44;;;;;;;57.07;38.07;;;;;;;3.05;95.42;102338.31;5285587;28;20074;-75
2022/12/02 03:42:16;;;;;;;61.43;40.10;;;;;;;2.98;95.38;102328.59;5267711;28;20467;-74
2022/12/02 03:44:49;;;;;;;59.90;37.50;;;;;;;3.08;96.18;102329.84;5285497;28;20029;-75
2022/12/02 03:47:21;;;;;;;59.67;38.67;;;;;;;2.95;95.79;102328.44;5285569;28;20036;-75
2022/12/02 03:49:52;;;;;;;59.47;39.10;;;;;;;2.97;95.67;102318.22;5284287;28;20102;-75
2022/12/02 03:52:24;;;;;;;61.00;39.60;;;;;;;2.95;95.37;102318.16;5285479;28;20032;-75
2022/12/02 03:54:56;;;;;;;63.30;38.67;;;;;;;2.94;95.62;102323.22;5285337;28;20378;-75
2022/12/02 03:57:31;;;;;;;59.83;36.43;;;;;;;2.92;95.39;102321.47;5285273;28;20040;-76
2022/12/02 04:00:04;;;;;;;65.25;38.38;;;;;;;2.91;95.14;102317.13;5285154;28;20029;-75
2022/12/02 04:02:35;;;;;;;57.95;36.92;;;;;;;2.92;94.98;102297.41;5285193;28;20044;-76
2022/12/02 04:05:07;;;;;;;61.37;38.23;;;;;;;2.91;95.07;102304.25;5285165;28;20486;-76
2022/12/02 04:07:38;;;;;;;59.07;37.60;;;;;;;2.92;95.17;102308.56;5285073;28;20028;-76
2022/12/02 04:10:10;;;;;;;60.47;38.97;;;;;;;2.95;95.36;102306.94;5285259;28;20039;-76
2022/12/02 04:12:41;;;;;;;61.10;38.97;;;;;;;2.92;95.38;102302.56;5285040;28;20095;-76
2022/12/02 04:15:13;;;;;;;62.27;38.40;;;;;;;2.87;95.39;102306.63;5285250;28;20071;-76
2022/12/02 04:17:44;;;;;;;58.40;38.27;;;;;;;2.91;95.92;102300.78;5285110;28;20036;-76
2022/12/02 04:20:16;;;;;;;62.67;38.93;;;;;;;2.87;95.88;102297.19;5284628;28;20561;-76
2022/12/02 04:22:47;;;;;;;60.97;38.13;;;;;;;2.88;96.11;102309.28;5285066;28;20060;-76
2022/12/02 04:25:19;;;;;;;59.17;37.27;;;;;;;2.92;96.12;102300.84;5285226;28;20090;-76
2022/12/02 04:27:50;;;;;;;68.20;40.13;;;;;;;2.84;96.08;102301.34;5266778;28;20059;-76
2022/12/02 04:30:21;;;;;;;69.50;42.83;;;;;;;2.84;96.57;102297.06;5284613;28;20086;-76
2022/12/02 04:32:53;;;;;;;60.93;39.03;;;;;;;2.85;96.76;102285.97;5284268;28;20082;-76
2022/12/02 04:35:24;;;;;;;63.00;37.83;;;;;;;2.87;97.20;102292.06;5284509;28;20036;-76
2022/12/02 04:37:56;;;;;;;65.40;38.63;;;;;;;2.86;96.89;102295.44;5284626;28;20024;-76
2022/12/02 04:40:27;;;;;;;61.97;36.77;;;;;;;2.92;96.72;102294.81;5284349;28;20072;-76
2022/12/02 04:42:58;;;;;;;64.83;38.80;;;;;;;2.92;97.38;102300.84;5284628;28;20053;-76
2022/12/02 04:45:30;;;;;;;60.37;38.90;;;;;;;2.87;97.12;102291.19;5284319;28;20024;-76
2022/12/02 04:48:01;;;;;;;58.93;35.67;;;;;;;2.85;96.85;102292.78;5284281;28;20039;-76
2022/12/02 04:50:33;;;;;;;55.97;34.77;;;;;;;2.77;96.03;102292.47;5284718;28;20104;-76
2022/12/02 04:53:04;;;;;;;49.53;31.40;;;;;;;2.78;95.69;102285.63;5284093;28;20150;-76
2022/12/02 04:55:35;;;;;;;55.63;31.90;;;;;;;2.77;95.38;102279.59;5284087;28;20480;-76
2022/12/02 04:58:06;;;;;;;49.57;32.13;;;;;;;2.72;95.47;102286.22;5284082;28;20428;-75
2022/12/02 05:00:38;;;;;;;50.03;30.77;;;;;;;2.66;95.36;102275.69;5283850;28;20068;-75
2022/12/02 05:03:09;;;;;;;51.70;30.47;;;;;;;2.66;95.42;102283.41;5284291;28;20051;-76
2022/12/02 05:05:41;;;;;;;48.80;30.83;;;;;;;2.63;94.89;102275.53;5284055;28;20045;-76
2022/12/02 05:08:12;;;;;;;53.83;30.70;;;;;;;2.69;94.77;102279.25;5283526;28;20106;-76
2022/12/02 05:10:44;;;;;;;46.33;29.50;;;;;;;2.63;94.31;102265.25;5283992;28;20051;-76
2022/12/02 05:13:15;;;;;;;48.00;28.67;;;;;;;2.66;94.45;102276.56;5283586;28;20064;-75
2022/12/02 05:15:46;;;;;;;45.87;28.57;;;;;;;2.68;94.47;102274.91;5284380;28;20402;-74
2022/12/02 05:18:18;;;;;;;47.00;29.67;;;;;;;2.64;94.57;102264.41;5283773;28;20033;-73
2022/12/02 05:20:49;;;;;;;45.20;29.03;;;;;;;2.58;94.58;102259.91;5283558;28;20430;-73
2022/12/02 05:23:20;;;;;;;47.07;29.67;;;;;;;2.58;94.06;102262.47;5283263;28;20032;-73
2022/12/02 05:25:52;;;;;;;45.47;27.93;;;;;;;2.62;94.82;102263.47;5283647;28;20162;-73
2022/12/02 05:28:23;;;;;;;46.57;29.13;;;;;;;2.66;95.15;102263.69;5284210;28;20048;-73
2022/12/02 05:30:54;;;;;;;46.43;29.17;;;;;;;2.60;94.97;102258.25;5283193;28;20119;-74
2022/12/02 05:33:26;;;;;;;51.67;30.00;;;;;;;2.61;94.86;102264.28;5283485;28;20032;-74
2022/12/02 05:35:57;;;;;;;46.10;28.73;;;;;;;2.61;94.55;102269.44;5283701;28;20047;-73
2022/12/02 05:38:28;;;;;;;50.90;30.13;;;;;;;2.63;94.50;102271.25;5283395;28;20040;-73
2022/12/02 05:41:00;;;;;;;45.77;29.40;;;;;;;2.54;93.84;102271.75;5283968;28;20029;-74
2022/12/02 05:43:38;;;;;;;44.37;29.43;;;;;;;2.54;93.77;102258.88;5284028;28;20053;-73
2022/12/02 05:46:16;;;;;;;47.65;29.50;;;;;;;2.55;94.13;102252.91;5283824;28;20089;-74
2022/12/02 05:48:49;;;;;;;47.25;27.40;;;;;;;2.51;94.37;102248.44;5283326;28;20043;-74
2022/12/02 05:51:21;;;;;;;49.55;29.48;;;;;;;2.60;94.32;102247.97;5265480;28;20051;-74
2022/12/02 05:53:52;;;;;;;51.80;28.80;;;;;;;2.60;94.84;102250.53;5283769;28;20036;-73
2022/12/02 05:56:27;;;;;;;44.43;27.83;;;;;;;2.59;95.00;102255.63;5283280;28;20035;-74
2022/12/02 05:59:01;;;;;;;44.78;28.58;;;;;;;2.58;95.09;102262.47;5283233;28;20036;-73
2022/12/02 06:01:37;;;;;;;43.65;26.30;;;;;;;2.55;94.87;102255.47;5283795;28;20082;-73
2022/12/02 06:04:15;;;;;;;48.45;25.92;;;;;;;2.58;95.14;102259.00;5282993;28;20028;-73
2022/12/02 06:06:47;;;;;;;41.83;26.08;;;;;;;2.60;95.41;102265.09;5283068;28;20522;-73
2022/12/02 06:09:23;;;;;;;44.73;27.37;;;;;;;2.51;94.58;102256.19;5282979;28;20111;-73
2022/12/02 06:11:54;;;;;;;44.00;26.52;;;;;;;2.55;94.92;102263.19;5283966;28;20032;-73
2022/12/02 06:14:31;;;;;;;39.60;26.57;;;;;;;2.56;94.95;102256.38;5287426;28;20028;-73
2022/12/02 06:17:13;;;;;;;43.40;25.90;;;;;;;2.51;94.44;102255.28;5287410;28;20085;-73
2022/12/02 06:19:52;;;;;;;41.20;25.27;;;;;;;2.53;94.35;102263.97;5286835;28;20032;-73
2022/12/02 06:22:29;;;;;;;44.85;25.63;;;;;;;2.50;94.45;102262.13;5287054;28;20033;-73
2022/12/02 06:25:02;;;;;;;42.65;26.65;;;;;;;2.54;94.39;102261.47;5286940;28;20151;-74
2022/12/02 06:27:33;;;;;;;;;;;;;;;2.69;94.30;102260.38;5287292;28;20035;-74
2022/12/02 06:30:06;;;;;;;39.60;24.40;;;;;;;2.60;94.49;102260.84;5286655;28;19912;-73
2022/12/02 06:32:41;;;;;;;41.50;24.48;;;;;;;2.55;94.96;102257.19;5269152;28;20020;-74
2022/12/02 06:35:21;;;;;;;39.38;24.67;;;;;;;2.54;94.74;102258.88;5286692;28;20017;-74
2022/12/02 06:37:55;;;;;;;42.20;25.42;;;;;;;2.51;94.45;102252.69;5286594;28;20035;-73
2022/12/02 06:40:32;;;;;;;42.22;23.17;;;;;;;2.48;94.65;102260.28;5286027;28;20430;-73
2022/12/02 06:43:24;;;;;;;41.35;24.10;;;;;;;2.51;95.33;102261.31;5285954;28;20317;-73
2022/12/02 06:45:57;;;;;;;44.30;25.83;;;;;;;2.44;95.38;102253.25;5286345;28;20021;-74
2022/12/02 06:48:33;;;;;;;45.05;25.83;;;;;;;2.44;95.76;102253.25;5268268;28;20059;-73
2022/12/02 06:51:19;;;;;;;41.33;25.05;;;;;;;2.45;95.03;102250.75;5286054;28;20477;-73
2022/12/02 06:53:50;;;;;;;42.17;24.70;;;;;;;2.45;95.01;102265.31;5286601;28;20155;-73
2022/12/02 06:56:27;;;;;;;42.30;24.63;;;;;;;2.43;95.00;102252.38;5286242;28;20141;-73
2022/12/02 06:59:03;;;;;;;34.38;22.73;;;;;;;2.41;95.21;102253.13;5286504;28;20021;-73
2022/12/02 07:01:37;;;;;;;42.03;24.83;;;;;;;2.45;95.18;102255.91;5286166;28;20060;-73
2022/12/02 07:04:08;;;;;;;36.92;22.15;;;;;;;2.47;95.28;102253.41;5286006;28;20134;-73
2022/12/02 07:06:43;;;;;;;39.27;23.67;;;;;;;2.46;95.36;102257.63;5285948;28;20107;-73
2022/12/02 07:09:26;;;;;;;41.53;24.80;;;;;;;2.45;95.06;102265.31;5286313;28;20464;-73
2022/12/02 07:11:58;;;;;;;44.03;25.25;;;;;;;2.41;94.99;102260.84;5286603;28;20470;-73
2022/12/02 07:14:57;;;;;;;41.30;23.80;;;;;;;2.45;95.54;102265.31;5286549;28;20028;-73
2022/12/02 07:17:30;;;;;;;40.20;23.75;;;;;;;2.43;95.76;102269.50;5275822;28;20055;-73
2022/12/02 07:20:10;;;;;;;40.92;23.60;;;;;;;2.44;95.49;102261.84;5285811;28;20482;-73
2022/12/02 07:22:52;;;;;;;43.67;24.90;;;;;;;2.39;95.82;102262.47;5285464;28;20080;-73
2022/12/02 07:25:37;;;;;;;45.58;24.75;;;;;;;2.42;96.28;102266.06;5286238;28;20363;-73
2022/12/02 07:28:35;;;;;;;42.90;25.60;;;;;;;2.44;95.94;102272.16;5285888;28;20024;-73
2022/12/02 07:31:25;;;;;;;36.65;22.52;;;;;;;2.44;96.42;102269.56;5285883;28;20043;-73
2022/12/02 07:33:57;;;;;;;40.50;22.00;;;;;;;2.44;96.56;102269.56;5285800;28;20086;-73
2022/12/02 07:36:28;;;;;;;40.70;23.97;;;;;;;2.44;96.70;102264.41;5285791;28;20028;-73
2022/12/02 07:38:59;;;;;;;38.47;22.50;;;;;;;2.44;96.75;102263.56;5266899;28;20435;-73
2022/12/02 07:41:31;;;;;;;37.77;22.63;;;;;;;2.45;97.12;102266.19;5285256;28;20519;-73
2022/12/02 07:44:03;;;;;;;45.17;25.67;;;;;;;2.39;97.31;102259.91;5285171;28;20079;-74
2022/12/02 07:46:34;;;;;;;39.03;22.40;;;;;;;2.43;97.29;102261.78;5285453;28;20448;-74
2022/12/02 07:49:06;;;;;;;34.70;21.40;;;;;;;2.45;97.46;102261.03;5285458;28;20067;-74
2022/12/02 07:51:37;;;;;;;38.33;20.53;;;;;;;2.48;96.96;102257.72;5285713;28;20020;-74
2022/12/02 07:54:09;;;;;;;38.30;21.77;;;;;;;2.44;96.62;102256.69;5285809;28;20055;-74
2022/12/02 07:56:40;;;;;;;39.73;22.43;;;;;;;2.42;96.63;102260.91;5285306;28;20035;-74
2022/12/02 07:59:11;;;;;;;39.90;22.73;;;;;;;2.43;96.45;102256.63;5285163;28;20064;-74
2022/12/02 08:01:44;;;;;;;36.20;21.03;;;;;;;2.50;96.51;102258.69;5285795;28;20025;-74
2022/12/02 08:04:15;;;;;;;39.15;21.92;;;;;;;2.45;96.66;102267.91;5285291;28;20032;-74
2022/12/02 08:06:47;;;;;;;32.07;20.40;;;;;;;2.42;96.55;102258.34;5285235;28;20037;-74
2022/12/02 08:09:18;;;;;;;39.40;22.63;;;;;;;2.38;96.15;102261.56;5284778;28;20098;-74
2022/12/02 08:11:49;;;;;;;40.63;23.50;;;;;;;2.43;96.34;102270.41;5285472;28;20464;-74
2022/12/02 08:14:21;;;;;;;37.30;22.43;;;;;;;2.43;96.43;102267.84;5284951;28;20036;-74
2022/12/02 08:16:52;;;;;;;39.93;23.40;;;;;;;2.34;96.51;102267.41;5284894;28;20077;-74
2022/12/02 08:19:23;;;;;;;39.27;21.90;;;;;;;2.42;96.77;102266.06;5284085;28;20028;-74
2022/12/02 08:21:55;;;;;;;39.50;24.00;;;;;;;2.45;97.39;102266.19;5284070;28;20083;-74
2022/12/02 08:24:26;;;;;;;38.47;24.53;;;;;;;2.49;97.04;102262.94;5284975;28;20063;-74
2022/12/02 08:26:57;;;;;;;38.27;23.10;;;;;;;2.49;96.79;102262.94;5284433;28;20115;-74
2022/12/02 08:29:29;;;;;;;39.23;23.27;;;;;;;2.51;96.65;102258.75;5284047;28;20040;-74
2022/12/02 08:32:01;;;;;;;39.77;23.63;;;;;;;2.57;96.94;102260.69;5284466;28;20234;-74
2022/12/02 08:34:33;;;;;;;37.95;23.48;;;;;;;2.52;96.93;102254.47;5283705;28;20036;-74
2022/12/02 08:37:04;;;;;;;40.33;22.97;;;;;;;2.54;97.59;102261.47;5266194;28;20033;-73
2022/12/02 08:39:36;;;;;;;40.07;23.73;;;;;;;2.60;97.97;102254.81;5266042;28;20032;-74
2022/12/02 08:42:08;;;;;;;38.70;22.77;;;;;;;2.61;97.94;102253.97;5284251;28;20193;-74
2022/12/02 08:44:39;;;;;;;38.80;23.87;;;;;;;2.57;97.94;102260.69;5284637;28;20045;-74
2022/12/02 08:47:10;;;;;;;43.33;24.17;;;;;;;2.62;98.36;102263.47;5284102;28;20422;-74
2022/12/02 08:49:42;;;;;;;43.87;25.60;;;;;;;2.55;98.26;102258.06;5284356;28;20036;-74
2022/12/02 08:52:13;;;;;;;44.60;26.13;;;;;;;2.61;98.90;102260.03;5284167;28;20114;-74
2022/12/02 08:54:47;;;;;;;45.77;25.73;;;;;;;2.65;98.27;102268.75;5284849;28;20039;-74
2022/12/02 08:57:18;;;;;;;42.80;26.30;;;;;;;2.57;98.72;102263.28;5284864;28;20388;-74
2022/12/02 08:59:50;;;;;;;40.77;25.97;;;;;;;2.58;99.11;102262.47;5284547;28;20033;-74
2022/12/02 09:02:21;;;;;;;39.00;24.53;;;;;;;2.58;99.12;102259.91;5266610;28;20123;-74
2022/12/02 09:04:52;;;;;;;60.43;36.57;;;;;;;2.46;99.32;102255.06;5286775;28;20070;-74
2022/12/02 09:07:24;;;;;;;47.63;28.43;;;;;;;2.53;99.38;102257.13;5289104;28;20040;-74
2022/12/02 09:09:55;;;;;;;43.23;25.93;;;;;;;2.61;100.00;102261.69;5287116;28;20043;-73
2022/12/02 09:12:27;;;;;;;35.17;22.77;;;;;;;2.58;99.98;102261.56;5266537;28;20040;-74
2022/12/02 09:14:58;;;;;;;34.73;22.37;;;;;;;2.51;100.00;102260.41;5284212;28;20103;-74
2022/12/02 09:17:29;;;;;;;40.73;23.50;;;;;;;2.47;100.00;102266.25;5283868;28;20033;-74
2022/12/02 09:20:03;;;;;;;37.80;21.90;;;;;;;2.48;100.00;102253.47;5284094;28;20020;-73
2022/12/02 09:22:35;;;;;;;33.33;21.10;;;;;;;2.56;100.00;102258.97;5283627;28;20035;-74
2022/12/02 09:25:06;;;;;;;33.37;21.90;;;;;;;2.48;100.00;102258.63;5266688;28;20480;-73
2022/12/02 09:27:38;;;;;;;32.93;20.70;;;;;;;2.46;100.00;102259.34;5284492;28;20111;-73
2022/12/02 09:30:10;;;;;;;33.73;22.27;;;;;;;2.34;100.00;102254.53;5283492;28;20036;-74
2022/12/02 09:32:41;;;;;;;34.75;21.27;;;;;;;2.35;100.00;102254.63;5283178;28;20031;-74
2022/12/02 09:35:13;;;;;;;34.70;20.40;;;;;;;2.34;100.00;102258.00;5283741;28;20033;-74
2022/12/02 09:37:44;;;;;;;37.47;21.57;;;;;;;2.37;100.00;102252.09;5265104;28;20036;-74
2022/12/02 09:40:16;;;;;;;33.50;20.60;;;;;;;2.34;100.00;102252.84;5264997;28;20025;-74
2022/12/02 09:42:49;;;;;;;31.67;19.93;;;;;;;2.45;100.00;102242.16;5282747;28;20072;-74
2022/12/02 09:45:20;;;;;;;32.33;20.05;;;;;;;2.34;100.00;102242.53;5283312;28;20024;-73
2022/12/02 09:47:54;;;;;;;34.70;19.53;;;;;;;2.31;100.00;102242.41;5282257;28;20051;-73
2022/12/02 09:50:26;;;;;;;34.33;19.42;;;;;;;2.41;100.00;102235.97;5283367;28;20035;-73
2022/12/02 09:53:05;;;;;;;35.67;21.05;;;;;;;2.41;100.00;102235.97;5283574;28;20128;-73
2022/12/02 09:55:37;;;;;;;34.85;20.67;;;;;;;2.48;100.00;102238.03;5284029;28;20363;-74
2022/12/02 09:58:13;;;;;;;33.50;21.23;;;;;;;2.52;100.00;102237.31;5283337;28;20032;-73
2022/12/02 10:00:45;;;;;;;32.15;19.33;;;;;;;2.60;100.00;102234.22;5283192;28;20042;-73
2022/12/02 10:03:22;;;;;;;36.05;20.15;;;;;;;2.62;100.00;102233.44;5282716;28;20037;-73
2022/12/02 10:05:55;;;;;;;33.70;20.10;;;;;;;2.61;100.00;102234.28;5283846;28;20069;-73
2022/12/02 10:08:27;;;;;;;34.65;20.27;;;;;;;2.62;100.00;102237.72;5282780;28;20025;-73
2022/12/02 10:10:59;;;;;;;32.20;20.20;;;;;;;2.63;100.00;102239.50;5264901;28;20368;-73
2022/12/02 10:13:36;;;;;;;33.80;20.13;;;;;;;2.60;100.00;102236.78;5283287;28;20036;-73
2022/12/02 10:16:12;;;;;;;32.78;20.48;;;;;;;2.62;100.00;102235.16;5282917;28;20389;-73
2022/12/02 10:18:45;;;;;;;33.28;19.35;;;;;;;2.65;100.00;102236.16;5283024;28;20028;-73
2022/12/02 10:21:16;;;;;;;37.92;20.63;;;;;;;2.62;100.00;102237.72;5282536;28;20060;-73
2022/12/02 10:23:53;;;;;;;37.07;20.90;;;;;;;2.67;100.00;102238.81;5264620;28;20102;-73
2022/12/02 10:26:26;;;;;;;36.00;20.17;;;;;;;2.54;100.00;102230.56;5282999;28;20060;-73
2022/12/02 10:29:06;;;;;;;35.80;19.85;;;;;;;2.57;100.00;102228.94;5282480;28;20029;-73
2022/12/02 10:31:52;;;;;;;33.65;19.50;;;;;;;2.59;100.00;102223.03;5282636;28;20032;-74
2022/12/02 10:34:25;;;;;;;38.22;21.77;;;;;;;2.51;100.00;102226.97;5282659;28;20040;-73
2022/12/02 10:37:13;;;;;;;;;;;;;;;2.70;100.00;102226.06;5282829;28;20380;-73
2022/12/02 10:39:44;;;;;;;39.03;22.98;;;;;;;2.64;100.00;102218.06;5282130;28;19919;-73
2022/12/02 10:42:20;;;;;;;45.87;23.73;;;;;;;2.58;100.00;102216.13;5264164;28;20025;-73
2022/12/02 10:45:17;;;;;;;43.72;24.50;;;;;;;2.59;100.00;102217.00;5265461;28;20102;-73
2022/12/02 10:47:50;;;;;;;49.70;25.20;;;;;;;2.60;100.00;102211.06;5282516;28;20353;-74
2022/12/02 10:50:23;;;;;;;50.65;25.92;;;;;;;2.61;100.00;102205.06;5282156;28;20071;-73
2022/12/02 10:52:58;;;;;;;51.22;25.27;;;;;;;2.59;100.00;102201.56;5282102;28;20108;-73
2022/12/02 10:55:30;;;;;;;53.03;27.63;;;;;;;2.65;100.00;102202.69;5282022;28;20033;-74
2022/12/02 10:58:01;;;;;;;52.70;27.30;;;;;;;2.71;100.00;102204.66;5283369;28;20079;-73
2022/12/02 11:00:33;;;;;;;50.23;27.03;;;;;;;2.67;100.00;102200.19;5267870;28;20101;-74
2022/12/02 11:03:04;;;;;;;52.63;26.57;;;;;;;2.71;100.00;102200.38;5285692;28;20031;-74
2022/12/02 11:05:37;;;;;;;57.50;27.20;;;;;;;2.65;100.00;102196.66;5286070;28;20040;-74
2022/12/02 11:08:24;;;;;;;55.85;28.42;;;;;;;2.82;100.00;102200.84;5286048;28;20408;-73
2022/12/02 11:11:16;;;;;;;50.28;27.15;;;;;;;2.91;100.00;102201.22;5285543;28;20035;-74
2022/12/02 11:14:02;;;;;;;52.83;26.50;;;;;;;2.98;100.00;102191.16;5285977;28;20024;-73
2022/12/02 11:16:36;;;;;;;51.03;26.27;;;;;;;2.98;100.00;102201.47;5268166;28;20434;-73
2022/12/02 11:19:07;;;;;;;55.20;28.85;;;;;;;2.94;100.00;102195.31;5285780;28;20037;-74
2022/12/02 11:21:42;;;;;;;53.60;27.40;;;;;;;3.02;100.00;102193.06;5267525;28;20024;-74
2022/12/02 11:24:22;;;;;;;57.45;27.23;;;;;;;3.08;100.00;102183.88;5267492;28;20123;-73
2022/12/02 11:27:03;;;;;;;47.92;25.02;;;;;;;3.15;100.00;102187.56;5285428;28;20100;-73
2022/12/02 11:30:05;;;;;;;52.08;25.48;;;;;;;3.23;100.00;102182.72;5268648;28;20033;-74
2022/12/02 11:32:37;;;;;;;52.23;27.67;;;;;;;3.23;100.00;102183.59;5244558;28;20197;-74
2022/12/02 11:35:47;;;;;;;52.43;27.37;;;;;;;3.13;100.00;102183.19;5285537;28;20285;-74
2022/12/02 11:38:25;;;;;;;58.03;29.20;;;;;;;3.19;100.00;102192.03;5285419;28;20021;-74
2022/12/02 11:40:59;;;;;;;56.88;26.75;;;;;;;3.21;100.00;102192.97;5285107;28;20125;-74
2022/12/02 11:44:10;;;;;;;52.30;28.10;;;;;;;3.23;100.00;102182.72;5282946;28;20097;-74
2022/12/02 11:46:56;;;;;;;56.83;27.88;;;;;;;3.23;100.00;102178.44;5270743;28;20114;-74
2022/12/02 11:49:31;;;;;;;52.15;26.58;;;;;;;3.25;99.70;102181.09;5285590;28;20356;-74
2022/12/02 11:52:08;;;;;;;50.92;26.83;;;;;;;3.24;99.73;102181.91;5284881;28;20020;-75